Terminal Aerodrome Forecast
Issued by NWS Cleveland, OH

Home | Current Version | Previous Version | Graphics & Text | Print | Product List | Glossary On
Versions: 1 2 3 4 5 6 7 8 9 10 11 12 13 14
129
FTUS41 KCLE 250537
TAFCAK
TAF
KCAK 250537Z 2506/2606 33007KT P6SM SCT028 BKN035
      TEMPO 2506/2510 BKN028
     FM251000 36005KT P6SM BKN028
     FM251800 36008KT P6SM BKN035
     FM252200 01007KT P6SM SCT040
     FM260200 05005KT P6SM FEW250=

USA.gov is the U.S. government's official web portal to all federal, state and local government web resources and services.